sensor_id;sensor_type;location;lat;lon;timestamp;temperature;humidity
14101;DHT22;7127;49.372;8.166;2022-07-29T00:01:46;26.20;34.00
14101;DHT22;7127;49.372;8.166;2022-07-29T00:04:13;26.20;34.00
14101;DHT22;7127;49.372;8.166;2022-07-29T00:06:40;26.10;34.00
14101;DHT22;7127;49.372;8.166;2022-07-29T00:09:07;26.10;34.00
14101;DHT22;7127;49.372;8.166;2022-07-29T00:11:36;26.10;34.00
14101;DHT22;7127;49.372;8.166;2022-07-29T00:14:03;26.10;34.10
14101;DHT22;7127;49.372;8.166;2022-07-29T00:16:30;26.00;34.10
14101;DHT22;7127;49.372;8.166;2022-07-29T00:18:57;26.00;34.20
14101;DHT22;7127;49.372;8.166;2022-07-29T00:21:24;25.90;34.20
14101;DHT22;7127;49.372;8.166;2022-07-29T00:23:51;25.90;34.20
14101;DHT22;7127;49.372;8.166;2022-07-29T00:26:18;25.80;34.40
14101;DHT22;7127;49.372;8.166;2022-07-29T00:28:47;25.80;34.40
14101;DHT22;7127;49.372;8.166;2022-07-29T00:31:14;25.70;34.50
14101;DHT22;7127;49.372;8.166;2022-07-29T00:33:41;25.70;34.60
14101;DHT22;7127;49.372;8.166;2022-07-29T00:36:07;25.70;34.70
14101;DHT22;7127;49.372;8.166;2022-07-29T00:38:33;25.60;34.70
14101;DHT22;7127;49.372;8.166;2022-07-29T00:41:00;25.50;34.80
14101;DHT22;7127;49.372;8.166;2022-07-29T00:43:27;25.50;34.90
14101;DHT22;7127;49.372;8.166;2022-07-29T00:45:56;25.40;35.00
14101;DHT22;7127;49.372;8.166;2022-07-29T00:48:23;25.40;35.20
14101;DHT22;7127;49.372;8.166;2022-07-29T00:50:50;25.40;35.20
14101;DHT22;7127;49.372;8.166;2022-07-29T00:53:17;25.40;35.40
14101;DHT22;7127;49.372;8.166;2022-07-29T00:55:45;25.40;35.50
14101;DHT22;7127;49.372;8.166;2022-07-29T00:58:13;25.30;35.50
14101;DHT22;7127;49.372;8.166;2022-07-29T01:00:40;25.30;35.50
14101;DHT22;7127;49.372;8.166;2022-07-29T01:03:08;25.30;35.50
14101;DHT22;7127;49.372;8.166;2022-07-29T01:05:36;25.20;35.50
14101;DHT22;7127;49.372;8.166;2022-07-29T01:08:03;25.20;35.50
14101;DHT22;7127;49.372;8.166;2022-07-29T01:10:32;25.20;35.50
14101;DHT22;7127;49.372;8.166;2022-07-29T01:12:59;25.20;35.50
14101;DHT22;7127;49.372;8.166;2022-07-29T01:15:28;25.10;35.50
14101;DHT22;7127;49.372;8.166;2022-07-29T01:18:01;25.10;35.50
14101;DHT22;7127;49.372;8.166;2022-07-29T01:20:52;25.00;35.50
14101;DHT22;7127;49.372;8.166;2022-07-29T01:23:46;25.00;35.60
14101;DHT22;7127;49.372;8.166;2022-07-29T01:26:31;25.00;35.60
14101;DHT22;7127;49.372;8.166;2022-07-29T01:29:06;24.90;35.60
14101;DHT22;7127;49.372;8.166;2022-07-29T01:31:42;24.90;35.60
14101;DHT22;7127;49.372;8.166;2022-07-29T01:34:17;24.80;35.50
14101;DHT22;7127;49.372;8.166;2022-07-29T01:36:50;24.80;35.60
14101;DHT22;7127;49.372;8.166;2022-07-29T01:39:21;24.80;35.60
14101;DHT22;7127;49.372;8.166;2022-07-29T01:41:56;24.80;35.60
14101;DHT22;7127;49.372;8.166;2022-07-29T01:44:31;24.70;35.50
14101;DHT22;7127;49.372;8.166;2022-07-29T01:47:07;24.70;35.70
14101;DHT22;7127;49.372;8.166;2022-07-29T01:49:40;24.60;35.70
14101;DHT22;7127;49.372;8.166;2022-07-29T01:52:13;24.60;35.70
14101;DHT22;7127;49.372;8.166;2022-07-29T01:54:44;24.60;35.80
14101;DHT22;7127;49.372;8.166;2022-07-29T01:57:14;24.60;35.80
14101;DHT22;7127;49.372;8.166;2022-07-29T01:59:45;24.60;36.10
14101;DHT22;7127;49.372;8.166;2022-07-29T02:02:14;24.60;36.10
14101;DHT22;7127;49.372;8.166;2022-07-29T02:04:44;24.50;36.00
14101;DHT22;7127;49.372;8.166;2022-07-29T02:07:16;24.50;36.00
14101;DHT22;7127;49.372;8.166;2022-07-29T02:09:45;24.50;36.20
14101;DHT22;7127;49.372;8.166;2022-07-29T02:12:13;24.40;36.10
14101;DHT22;7127;49.372;8.166;2022-07-29T02:14:47;24.40;36.20
14101;DHT22;7127;49.372;8.166;2022-07-29T02:17:17;24.40;36.40
14101;DHT22;7127;49.372;8.166;2022-07-29T02:19:47;24.40;36.40
14101;DHT22;7127;49.372;8.166;2022-07-29T02:22:16;24.40;36.50
14101;DHT22;7127;49.372;8.166;2022-07-29T02:24:45;24.30;36.50
14101;DHT22;7127;49.372;8.166;2022-07-29T02:27:14;24.30;36.50
14101;DHT22;7127;49.372;8.166;2022-07-29T02:29:41;24.30;36.60
14101;DHT22;7127;49.372;8.166;2022-07-29T02:32:13;24.20;36.70
14101;DHT22;7127;49.372;8.166;2022-07-29T02:34:41;24.20;37.00
14101;DHT22;7127;49.372;8.166;2022-07-29T02:37:10;24.20;36.80
14101;DHT22;7127;49.372;8.166;2022-07-29T02:39:41;24.10;36.80
14101;DHT22;7127;49.372;8.166;2022-07-29T02:42:12;24.10;36.80
14101;DHT22;7127;49.372;8.166;2022-07-29T02:44:39;24.10;36.80
14101;DHT22;7127;49.372;8.166;2022-07-29T02:47:13;24.10;36.90
14101;DHT22;7127;49.372;8.166;2022-07-29T02:49:52;24.10;36.90
14101;DHT22;7127;49.372;8.166;2022-07-29T02:52:24;24.10;37.00
14101;DHT22;7127;49.372;8.166;2022-07-29T02:54:55;24.10;36.90
14101;DHT22;7127;49.372;8.166;2022-07-29T02:57:30;24.00;36.90
14101;DHT22;7127;49.372;8.166;2022-07-29T03:00:04;24.10;37.10
14101;DHT22;7127;49.372;8.166;2022-07-29T03:02:36;24.10;37.00
14101;DHT22;7127;49.372;8.166;2022-07-29T03:05:06;24.10;36.90
14101;DHT22;7127;49.372;8.166;2022-07-29T03:07:35;24.10;36.90
14101;DHT22;7127;49.372;8.166;2022-07-29T03:10:04;24.10;36.90
14101;DHT22;7127;49.372;8.166;2022-07-29T03:12:31;24.10;36.80
14101;DHT22;7127;49.372;8.166;2022-07-29T03:14:59;24.10;36.70
14101;DHT22;7127;49.372;8.166;2022-07-29T03:17:27;24.10;36.70
14101;DHT22;7127;49.372;8.166;2022-07-29T03:19:56;24.10;36.70
14101;DHT22;7127;49.372;8.166;2022-07-29T03:22:24;24.10;36.80
14101;DHT22;7127;49.372;8.166;2022-07-29T03:24:51;24.10;36.90
14101;DHT22;7127;49.372;8.166;2022-07-29T03:27:18;24.10;37.10
14101;DHT22;7127;49.372;8.166;2022-07-29T03:29:45;24.10;37.10
14101;DHT22;7127;49.372;8.166;2022-07-29T03:32:12;24.00;37.10
14101;DHT22;7127;49.372;8.166;2022-07-29T03:34:39;24.00;37.20
14101;DHT22;7127;49.372;8.166;2022-07-29T03:37:07;24.00;37.20
14101;DHT22;7127;49.372;8.166;2022-07-29T03:39:38;24.00;37.30
14101;DHT22;7127;49.372;8.166;2022-07-29T03:42:08;24.00;37.40
14101;DHT22;7127;49.372;8.166;2022-07-29T03:44:38;23.90;37.30
14101;DHT22;7127;49.372;8.166;2022-07-29T03:47:08;23.90;37.40
14101;DHT22;7127;49.372;8.166;2022-07-29T03:49:37;23.90;37.50
14101;DHT22;7127;49.372;8.166;2022-07-29T03:52:04;23.80;37.50
14101;DHT22;7127;49.372;8.166;2022-07-29T03:54:33;23.80;37.60
14101;DHT22;7127;49.372;8.166;2022-07-29T03:57:01;23.80;37.70
14101;DHT22;7127;49.372;8.166;2022-07-29T03:59:30;23.70;37.70
14101;DHT22;7127;49.372;8.166;2022-07-29T04:01:59;23.70;37.80
14101;DHT22;7127;49.372;8.166;2022-07-29T04:04:27;23.70;37.80
14101;DHT22;7127;49.372;8.166;2022-07-29T04:06:54;23.70;37.90
14101;DHT22;7127;49.372;8.166;2022-07-29T04:09:21;23.70;38.00
14101;DHT22;7127;49.372;8.166;2022-07-29T04:11:49;23.70;38.10
14101;DHT22;7127;49.372;8.166;2022-07-29T04:14:16;23.60;38.10
14101;DHT22;7127;49.372;8.166;2022-07-29T04:16:43;23.60;38.10
14101;DHT22;7127;49.372;8.166;2022-07-29T04:19:10;23.60;38.20
14101;DHT22;7127;49.372;8.166;2022-07-29T04:21:38;23.60;38.30
14101;DHT22;7127;49.372;8.166;2022-07-29T04:24:06;23.60;38.40
14101;DHT22;7127;49.372;8.166;2022-07-29T04:26:34;23.60;38.40
14101;DHT22;7127;49.372;8.166;2022-07-29T04:29:03;23.60;38.60
14101;DHT22;7127;49.372;8.166;2022-07-29T04:31:30;23.60;38.60
14101;DHT22;7127;49.372;8.166;2022-07-29T04:33:57;23.60;38.60
14101;DHT22;7127;49.372;8.166;2022-07-29T04:36:24;23.60;38.70
14101;DHT22;7127;49.372;8.166;2022-07-29T04:38:51;23.60;38.80
14101;DHT22;7127;49.372;8.166;2022-07-29T04:41:18;23.60;38.90
14101;DHT22;7127;49.372;8.166;2022-07-29T04:43:45;23.60;38.90
14101;DHT22;7127;49.372;8.166;2022-07-29T04:46:13;23.60;38.90
14101;DHT22;7127;49.372;8.166;2022-07-29T04:48:40;23.60;39.00
14101;DHT22;7127;49.372;8.166;2022-07-29T04:51:07;23.60;39.00
14101;DHT22;7127;49.372;8.166;2022-07-29T04:53:34;23.60;39.10
14101;DHT22;7127;49.372;8.166;2022-07-29T04:56:02;23.60;39.30
14101;DHT22;7127;49.372;8.166;2022-07-29T04:58:29;23.70;39.40
14101;DHT22;7127;49.372;8.166;2022-07-29T05:00:56;23.70;39.40
14101;DHT22;7127;49.372;8.166;2022-07-29T05:03:24;23.70;39.50
14101;DHT22;7127;49.372;8.166;2022-07-29T05:05:51;23.70;39.50
14101;DHT22;7127;49.372;8.166;2022-07-29T05:08:18;23.80;39.60
14101;DHT22;7127;49.372;8.166;2022-07-29T05:10:45;23.70;39.70
14101;DHT22;7127;49.372;8.166;2022-07-29T05:13:12;23.80;39.60
14101;DHT22;7127;49.372;8.166;2022-07-29T05:15:39;23.80;39.60
14101;DHT22;7127;49.372;8.166;2022-07-29T05:18:06;23.80;39.60
14101;DHT22;7127;49.372;8.166;2022-07-29T05:20:34;23.90;39.70
14101;DHT22;7127;49.372;8.166;2022-07-29T05:23:02;23.90;39.80
14101;DHT22;7127;49.372;8.166;2022-07-29T05:25:29;23.90;39.90
14101;DHT22;7127;49.372;8.166;2022-07-29T05:27:56;23.90;39.80
14101;DHT22;7127;49.372;8.166;2022-07-29T05:30:24;23.90;39.90
14101;DHT22;7127;49.372;8.166;2022-07-29T05:32:51;24.00;40.00
14101;DHT22;7127;49.372;8.166;2022-07-29T05:35:18;24.00;40.00
14101;DHT22;7127;49.372;8.166;2022-07-29T05:37:46;24.00;40.10
14101;DHT22;7127;49.372;8.166;2022-07-29T05:40:13;24.00;40.10
14101;DHT22;7127;49.372;8.166;2022-07-29T05:42:40;24.10;40.20
14101;DHT22;7127;49.372;8.166;2022-07-29T05:45:08;24.20;40.30
14101;DHT22;7127;49.372;8.166;2022-07-29T05:47:35;24.20;40.30
14101;DHT22;7127;49.372;8.166;2022-07-29T05:50:02;24.20;40.30
14101;DHT22;7127;49.372;8.166;2022-07-29T05:52:29;24.30;40.40
14101;DHT22;7127;49.372;8.166;2022-07-29T05:54:58;24.30;40.30
14101;DHT22;7127;49.372;8.166;2022-07-29T05:57:28;24.40;40.30
14101;DHT22;7127;49.372;8.166;2022-07-29T05:59:55;24.40;40.20
14101;DHT22;7127;49.372;8.166;2022-07-29T06:02:22;24.50;40.20
14101;DHT22;7127;49.372;8.166;2022-07-29T06:04:49;24.60;40.30
14101;DHT22;7127;49.372;8.166;2022-07-29T06:07:16;24.70;40.30
14101;DHT22;7127;49.372;8.166;2022-07-29T06:09:43;24.70;40.30
14101;DHT22;7127;49.372;8.166;2022-07-29T06:12:12;24.70;40.20
14101;DHT22;7127;49.372;8.166;2022-07-29T06:14:40;24.90;40.30
14101;DHT22;7127;49.372;8.166;2022-07-29T06:17:07;25.00;40.30
14101;DHT22;7127;49.372;8.166;2022-07-29T06:19:34;25.10;40.30
14101;DHT22;7127;49.372;8.166;2022-07-29T06:22:01;25.10;40.20
14101;DHT22;7127;49.372;8.166;2022-07-29T06:24:28;25.20;40.20
14101;DHT22;7127;49.372;8.166;2022-07-29T06:26:56;25.30;40.10
14101;DHT22;7127;49.372;8.166;2022-07-29T06:29:24;25.30;40.10
14101;DHT22;7127;49.372;8.166;2022-07-29T06:31:51;25.40;40.00
14101;DHT22;7127;49.372;8.166;2022-07-29T06:34:18;25.50;40.20
14101;DHT22;7127;49.372;8.166;2022-07-29T06:36:46;25.60;40.20
14101;DHT22;7127;49.372;8.166;2022-07-29T06:39:13;25.60;40.30
14101;DHT22;7127;49.372;8.166;2022-07-29T06:41:39;25.70;40.30
14101;DHT22;7127;49.372;8.166;2022-07-29T06:44:06;25.70;40.40
14101;DHT22;7127;49.372;8.166;2022-07-29T06:46:35;25.80;40.40
14101;DHT22;7127;49.372;8.166;2022-07-29T06:49:02;25.90;40.60
14101;DHT22;7127;49.372;8.166;2022-07-29T06:51:29;26.00;40.50
14101;DHT22;7127;49.372;8.166;2022-07-29T06:53:57;26.10;40.50
14101;DHT22;7127;49.372;8.166;2022-07-29T06:56:24;26.10;40.40
14101;DHT22;7127;49.372;8.166;2022-07-29T06:58:51;26.20;40.50
14101;DHT22;7127;49.372;8.166;2022-07-29T07:01:18;26.20;40.40
14101;DHT22;7127;49.372;8.166;2022-07-29T07:03:46;26.30;40.40
14101;DHT22;7127;49.372;8.166;2022-07-29T07:06:13;26.30;40.30
14101;DHT22;7127;49.372;8.166;2022-07-29T07:08:41;26.30;40.30
14101;DHT22;7127;49.372;8.166;2022-07-29T07:11:08;26.30;40.30
14101;DHT22;7127;49.372;8.166;2022-07-29T07:13:35;26.40;40.40
14101;DHT22;7127;49.372;8.166;2022-07-29T07:16:03;26.50;40.50
14101;DHT22;7127;49.372;8.166;2022-07-29T07:18:31;26.60;40.60
14101;DHT22;7127;49.372;8.166;2022-07-29T07:20:59;26.60;40.60
14101;DHT22;7127;49.372;8.166;2022-07-29T07:23:26;26.70;40.60
14101;DHT22;7127;49.372;8.166;2022-07-29T07:25:53;26.80;40.50
14101;DHT22;7127;49.372;8.166;2022-07-29T07:28:20;26.90;40.40
14101;DHT22;7127;49.372;8.166;2022-07-29T07:30:47;27.00;40.30
14101;DHT22;7127;49.372;8.166;2022-07-29T07:33:14;27.00;40.10
14101;DHT22;7127;49.372;8.166;2022-07-29T07:35:41;27.10;40.10
14101;DHT22;7127;49.372;8.166;2022-07-29T07:38:11;27.10;40.00
14101;DHT22;7127;49.372;8.166;2022-07-29T07:40:38;27.10;40.00
14101;DHT22;7127;49.372;8.166;2022-07-29T07:43:05;27.20;40.00
14101;DHT22;7127;49.372;8.166;2022-07-29T07:45:32;27.20;39.90
14101;DHT22;7127;49.372;8.166;2022-07-29T07:48:00;27.20;39.80
14101;DHT22;7127;49.372;8.166;2022-07-29T07:50:27;27.20;39.80
14101;DHT22;7127;49.372;8.166;2022-07-29T07:52:55;27.20;39.80
14101;DHT22;7127;49.372;8.166;2022-07-29T07:55:25;27.20;39.90
14101;DHT22;7127;49.372;8.166;2022-07-29T07:57:52;27.20;39.90
14101;DHT22;7127;49.372;8.166;2022-07-29T08:00:20;27.20;40.00
14101;DHT22;7127;49.372;8.166;2022-07-29T08:02:47;27.20;40.00
14101;DHT22;7127;49.372;8.166;2022-07-29T08:05:15;27.30;40.00
14101;DHT22;7127;49.372;8.166;2022-07-29T08:07:44;27.30;40.00
14101;DHT22;7127;49.372;8.166;2022-07-29T08:10:12;27.30;40.00
14101;DHT22;7127;49.372;8.166;2022-07-29T08:12:41;27.40;40.00
14101;DHT22;7127;49.372;8.166;2022-07-29T08:15:09;27.40;40.00
14101;DHT22;7127;49.372;8.166;2022-07-29T08:17:36;27.50;40.00
14101;DHT22;7127;49.372;8.166;2022-07-29T08:20:04;27.50;40.00
14101;DHT22;7127;49.372;8.166;2022-07-29T08:22:31;27.60;40.10
14101;DHT22;7127;49.372;8.166;2022-07-29T08:24:58;27.70;40.10
14101;DHT22;7127;49.372;8.166;2022-07-29T08:27:25;27.80;40.10
14101;DHT22;7127;49.372;8.166;2022-07-29T08:29:56;27.90;40.10
14101;DHT22;7127;49.372;8.166;2022-07-29T08:32:23;28.00;40.00
14101;DHT22;7127;49.372;8.166;2022-07-29T08:34:50;28.10;40.00
14101;DHT22;7127;49.372;8.166;2022-07-29T08:37:17;28.30;40.10
14101;DHT22;7127;49.372;8.166;2022-07-29T08:39:44;28.40;39.90
14101;DHT22;7127;49.372;8.166;2022-07-29T08:42:11;28.50;39.80
14101;DHT22;7127;49.372;8.166;2022-07-29T08:44:39;28.60;39.60
14101;DHT22;7127;49.372;8.166;2022-07-29T08:47:08;28.70;39.40
14101;DHT22;7127;49.372;8.166;2022-07-29T08:49:35;28.80;39.20
14101;DHT22;7127;49.372;8.166;2022-07-29T08:52:02;28.90;39.10
14101;DHT22;7127;49.372;8.166;2022-07-29T08:54:30;28.90;38.80
14101;DHT22;7127;49.372;8.166;2022-07-29T08:56:58;29.00;38.80
14101;DHT22;7127;49.372;8.166;2022-07-29T08:59:27;29.10;38.70
14101;DHT22;7127;49.372;8.166;2022-07-29T09:01:54;29.10;38.60
14101;DHT22;7127;49.372;8.166;2022-07-29T09:04:29;29.20;39.20
14101;DHT22;7127;49.372;8.166;2022-07-29T09:06:58;29.30;38.50
14101;DHT22;7127;49.372;8.166;2022-07-29T09:09:26;29.30;38.40
14101;DHT22;7127;49.372;8.166;2022-07-29T09:11:54;29.40;38.50
14101;DHT22;7127;49.372;8.166;2022-07-29T09:14:23;29.50;38.50
14101;DHT22;7127;49.372;8.166;2022-07-29T09:16:52;29.60;38.40
14101;DHT22;7127;49.372;8.166;2022-07-29T09:19:29;29.60;38.20
14101;DHT22;7127;49.372;8.166;2022-07-29T09:21:57;29.70;38.20
14101;DHT22;7127;49.372;8.166;2022-07-29T09:24:26;29.80;38.10
14101;DHT22;7127;49.372;8.166;2022-07-29T09:26:54;29.90;38.00
14101;DHT22;7127;49.372;8.166;2022-07-29T09:29:22;29.90;38.00
14101;DHT22;7127;49.372;8.166;2022-07-29T09:31:51;30.00;38.10
14101;DHT22;7127;49.372;8.166;2022-07-29T09:34:22;30.10;38.10
14101;DHT22;7127;49.372;8.166;2022-07-29T09:36:52;30.20;38.10
14101;DHT22;7127;49.372;8.166;2022-07-29T09:39:30;30.40;38.70
14101;DHT22;7127;49.372;8.166;2022-07-29T09:41:59;30.50;37.90
14101;DHT22;7127;49.372;8.166;2022-07-29T09:44:27;30.60;38.00
14101;DHT22;7127;49.372;8.166;2022-07-29T09:47:06;30.70;37.90
14101;DHT22;7127;49.372;8.166;2022-07-29T09:49:34;30.70;37.60
14101;DHT22;7127;49.372;8.166;2022-07-29T09:52:10;30.80;37.60
14101;DHT22;7127;49.372;8.166;2022-07-29T09:54:37;31.00;37.20
14101;DHT22;7127;49.372;8.166;2022-07-29T09:57:05;31.10;37.30
14101;DHT22;7127;49.372;8.166;2022-07-29T09:59:33;31.20;37.20
14101;DHT22;7127;49.372;8.166;2022-07-29T10:02:00;31.20;37.00
14101;DHT22;7127;49.372;8.166;2022-07-29T10:04:37;31.20;36.70
14101;DHT22;7127;49.372;8.166;2022-07-29T10:07:05;31.30;36.70
14101;DHT22;7127;49.372;8.166;2022-07-29T10:09:34;31.30;36.50
14101;DHT22;7127;49.372;8.166;2022-07-29T10:12:09;31.40;36.50
14101;DHT22;7127;49.372;8.166;2022-07-29T10:14:40;31.40;36.30
14101;DHT22;7127;49.372;8.166;2022-07-29T10:17:08;31.40;36.40
14101;DHT22;7127;49.372;8.166;2022-07-29T10:19:37;31.40;36.50
14101;DHT22;7127;49.372;8.166;2022-07-29T10:22:07;31.40;36.30
14101;DHT22;7127;49.372;8.166;2022-07-29T10:24:38;31.40;36.30
14101;DHT22;7127;49.372;8.166;2022-07-29T10:27:06;31.50;36.30
14101;DHT22;7127;49.372;8.166;2022-07-29T10:29:33;31.50;36.30
14101;DHT22;7127;49.372;8.166;2022-07-29T10:35:15;31.60;36.10
14101;DHT22;7127;49.372;8.166;2022-07-29T10:38:00;31.60;36.10
14101;DHT22;7127;49.372;8.166;2022-07-29T10:40:39;31.70;36.20
14101;DHT22;7127;49.372;8.166;2022-07-29T10:43:28;31.70;36.00
14101;DHT22;7127;49.372;8.166;2022-07-29T10:45:57;31.80;36.00
14101;DHT22;7127;49.372;8.166;2022-07-29T10:48:26;31.80;35.80
14101;DHT22;7127;49.372;8.166;2022-07-29T10:50:55;31.80;35.80
14101;DHT22;7127;49.372;8.166;2022-07-29T10:53:24;31.80;35.70
14101;DHT22;7127;49.372;8.166;2022-07-29T10:56:24;31.90;35.70
14101;DHT22;7127;49.372;8.166;2022-07-29T10:59:23;31.90;35.50
14101;DHT22;7127;49.372;8.166;2022-07-29T11:01:52;31.90;35.40
14101;DHT22;7127;49.372;8.166;2022-07-29T11:07:20;32.00;35.40
14101;DHT22;7127;49.372;8.166;2022-07-29T11:10:19;31.90;35.40
14101;DHT22;7127;49.372;8.166;2022-07-29T11:12:48;32.00;35.40
14101;DHT22;7127;49.372;8.166;2022-07-29T11:15:18;32.00;35.30
14101;DHT22;7127;49.372;8.166;2022-07-29T11:18:07;32.00;35.20
14101;DHT22;7127;49.372;8.166;2022-07-29T11:20:37;32.00;35.10
14101;DHT22;7127;49.372;8.166;2022-07-29T11:23:25;32.00;35.10
14101;DHT22;7127;49.372;8.166;2022-07-29T11:26:17;32.00;35.10
14101;DHT22;7127;49.372;8.166;2022-07-29T11:28:59;32.00;35.10
14101;DHT22;7127;49.372;8.166;2022-07-29T11:31:35;32.10;35.00
14101;DHT22;7127;49.372;8.166;2022-07-29T11:34:20;32.00;35.10
14101;DHT22;7127;49.372;8.166;2022-07-29T11:37:22;32.10;35.00
14101;DHT22;7127;49.372;8.166;2022-07-29T11:40:12;32.10;35.10
14101;DHT22;7127;49.372;8.166;2022-07-29T11:42:44;32.10;34.90
14101;DHT22;7127;49.372;8.166;2022-07-29T11:45:18;32.30;34.90
14101;DHT22;7127;49.372;8.166;2022-07-29T11:47:50;32.30;34.80
14101;DHT22;7127;49.372;8.166;2022-07-29T11:50:30;32.30;34.70
14101;DHT22;7127;49.372;8.166;2022-07-29T11:52:57;32.40;34.70
14101;DHT22;7127;49.372;8.166;2022-07-29T11:55:25;32.40;34.60
14101;DHT22;7127;49.372;8.166;2022-07-29T11:57:54;32.50;34.50
14101;DHT22;7127;49.372;8.166;2022-07-29T12:00:25;32.50;34.30
14101;DHT22;7127;49.372;8.166;2022-07-29T12:02:53;32.60;33.90
14101;DHT22;7127;49.372;8.166;2022-07-29T12:05:21;32.60;33.50
14101;DHT22;7127;49.372;8.166;2022-07-29T12:07:48;32.60;32.70
14101;DHT22;7127;49.372;8.166;2022-07-29T12:10:15;32.60;32.70
14101;DHT22;7127;49.372;8.166;2022-07-29T12:12:42;32.60;32.60
14101;DHT22;7127;49.372;8.166;2022-07-29T12:15:18;32.60;32.70
14101;DHT22;7127;49.372;8.166;2022-07-29T12:17:48;32.60;32.70
14101;DHT22;7127;49.372;8.166;2022-07-29T12:20:23;32.60;32.40
14101;DHT22;7127;49.372;8.166;2022-07-29T12:22:51;32.60;32.20
14101;DHT22;7127;49.372;8.166;2022-07-29T12:25:20;32.60;32.40
14101;DHT22;7127;49.372;8.166;2022-07-29T12:27:57;32.60;32.20
14101;DHT22;7127;49.372;8.166;2022-07-29T12:30:34;32.60;32.00
14101;DHT22;7127;49.372;8.166;2022-07-29T12:33:10;32.60;32.00
14101;DHT22;7127;49.372;8.166;2022-07-29T12:35:38;32.60;31.80
14101;DHT22;7127;49.372;8.166;2022-07-29T12:38:05;32.50;31.60
14101;DHT22;7127;49.372;8.166;2022-07-29T12:40:33;32.50;31.90
14101;DHT22;7127;49.372;8.166;2022-07-29T12:43:11;32.40;31.90
14101;DHT22;7127;49.372;8.166;2022-07-29T12:45:41;32.40;31.40
14101;DHT22;7127;49.372;8.166;2022-07-29T12:48:09;32.40;32.00
14101;DHT22;7127;49.372;8.166;2022-07-29T12:50:51;32.40;31.80
14101;DHT22;7127;49.372;8.166;2022-07-29T12:53:18;32.40;31.90
14101;DHT22;7127;49.372;8.166;2022-07-29T12:55:47;32.40;31.90
14101;DHT22;7127;49.372;8.166;2022-07-29T12:58:27;32.40;31.80
14101;DHT22;7127;49.372;8.166;2022-07-29T13:01:02;32.50;31.80
14101;DHT22;7127;49.372;8.166;2022-07-29T13:03:42;32.50;31.80
14101;DHT22;7127;49.372;8.166;2022-07-29T13:09:10;32.60;31.70
14101;DHT22;7127;49.372;8.166;2022-07-29T13:11:40;32.70;32.00
14101;DHT22;7127;49.372;8.166;2022-07-29T13:14:08;32.80;32.00
14101;DHT22;7127;49.372;8.166;2022-07-29T13:16:35;32.80;32.00
14101;DHT22;7127;49.372;8.166;2022-07-29T13:19:09;32.90;31.80
14101;DHT22;7127;49.372;8.166;2022-07-29T13:21:38;33.10;31.50
14101;DHT22;7127;49.372;8.166;2022-07-29T13:24:06;33.20;31.40
14101;DHT22;7127;49.372;8.166;2022-07-29T13:26:34;33.30;31.30
14101;DHT22;7127;49.372;8.166;2022-07-29T13:29:02;33.40;31.00
14101;DHT22;7127;49.372;8.166;2022-07-29T13:31:29;33.50;30.90
14101;DHT22;7127;49.372;8.166;2022-07-29T13:33:56;33.50;30.30
14101;DHT22;7127;49.372;8.166;2022-07-29T13:36:25;33.60;30.10
14101;DHT22;7127;49.372;8.166;2022-07-29T13:38:52;33.60;30.00
14101;DHT22;7127;49.372;8.166;2022-07-29T13:41:19;33.70;30.00
14101;DHT22;7127;49.372;8.166;2022-07-29T13:43:46;33.70;29.90
14101;DHT22;7127;49.372;8.166;2022-07-29T13:46:13;33.70;29.90
14101;DHT22;7127;49.372;8.166;2022-07-29T13:48:40;33.80;29.90
14101;DHT22;7127;49.372;8.166;2022-07-29T13:51:07;33.80;29.80
14101;DHT22;7127;49.372;8.166;2022-07-29T13:53:35;33.90;29.90
14101;DHT22;7127;49.372;8.166;2022-07-29T13:56:03;33.90;29.90
14101;DHT22;7127;49.372;8.166;2022-07-29T13:58:31;34.00;29.90
14101;DHT22;7127;49.372;8.166;2022-07-29T14:00:59;34.00;29.50
14101;DHT22;7127;49.372;8.166;2022-07-29T14:03:26;34.10;29.60
14101;DHT22;7127;49.372;8.166;2022-07-29T14:05:53;34.20;29.40
14101;DHT22;7127;49.372;8.166;2022-07-29T14:08:20;34.20;29.20
14101;DHT22;7127;49.372;8.166;2022-07-29T14:10:48;34.20;29.00
14101;DHT22;7127;49.372;8.166;2022-07-29T14:13:15;34.30;28.90
14101;DHT22;7127;49.372;8.166;2022-07-29T14:15:42;34.30;28.70
14101;DHT22;7127;49.372;8.166;2022-07-29T14:18:09;34.40;28.80
14101;DHT22;7127;49.372;8.166;2022-07-29T14:20:36;34.30;28.70
14101;DHT22;7127;49.372;8.166;2022-07-29T14:23:03;34.40;28.60
14101;DHT22;7127;49.372;8.166;2022-07-29T14:25:30;34.40;28.40
14101;DHT22;7127;49.372;8.166;2022-07-29T14:27:58;34.40;28.40
14101;DHT22;7127;49.372;8.166;2022-07-29T14:30:25;34.40;28.30
14101;DHT22;7127;49.372;8.166;2022-07-29T14:32:52;34.30;28.30
14101;DHT22;7127;49.372;8.166;2022-07-29T14:35:19;34.30;28.30
14101;DHT22;7127;49.372;8.166;2022-07-29T14:37:46;34.30;28.20
14101;DHT22;7127;49.372;8.166;2022-07-29T14:40:13;34.30;28.20
14101;DHT22;7127;49.372;8.166;2022-07-29T14:42:40;34.40;28.10
14101;DHT22;7127;49.372;8.166;2022-07-29T14:45:09;34.40;28.20
14101;DHT22;7127;49.372;8.166;2022-07-29T14:47:36;34.40;28.00
14101;DHT22;7127;49.372;8.166;2022-07-29T14:50:05;34.40;28.00
14101;DHT22;7127;49.372;8.166;2022-07-29T14:52:32;34.50;28.00
14101;DHT22;7127;49.372;8.166;2022-07-29T14:54:59;34.50;27.80
14101;DHT22;7127;49.372;8.166;2022-07-29T14:57:26;34.50;27.70
14101;DHT22;7127;49.372;8.166;2022-07-29T14:59:54;34.60;27.50
14101;DHT22;7127;49.372;8.166;2022-07-29T15:02:22;34.60;27.30
14101;DHT22;7127;49.372;8.166;2022-07-29T15:04:49;34.70;27.40
14101;DHT22;7127;49.372;8.166;2022-07-29T15:07:16;34.70;27.40
14101;DHT22;7127;49.372;8.166;2022-07-29T15:09:43;34.70;27.10
14101;DHT22;7127;49.372;8.166;2022-07-29T15:12:11;34.70;27.00
14101;DHT22;7127;49.372;8.166;2022-07-29T15:14:38;34.60;26.90
14101;DHT22;7127;49.372;8.166;2022-07-29T15:17:05;34.70;26.70
14101;DHT22;7127;49.372;8.166;2022-07-29T15:19:33;34.60;26.80
14101;DHT22;7127;49.372;8.166;2022-07-29T15:22:00;34.50;26.30
14101;DHT22;7127;49.372;8.166;2022-07-29T15:24:27;34.50;26.50
14101;DHT22;7127;49.372;8.166;2022-07-29T15:26:54;34.50;26.70
14101;DHT22;7127;49.372;8.166;2022-07-29T15:29:21;34.50;26.80
14101;DHT22;7127;49.372;8.166;2022-07-29T15:31:48;34.50;26.50
14101;DHT22;7127;49.372;8.166;2022-07-29T15:34:15;34.40;26.60
14101;DHT22;7127;49.372;8.166;2022-07-29T15:36:44;34.40;26.50
14101;DHT22;7127;49.372;8.166;2022-07-29T15:39:11;34.40;26.60
14101;DHT22;7127;49.372;8.166;2022-07-29T15:41:38;34.30;26.20
14101;DHT22;7127;49.372;8.166;2022-07-29T15:44:05;34.30;26.20
14101;DHT22;7127;49.372;8.166;2022-07-29T15:46:32;34.30;26.40
14101;DHT22;7127;49.372;8.166;2022-07-29T15:49:16;34.30;26.40
14101;DHT22;7127;49.372;8.166;2022-07-29T15:51:44;34.30;26.40
14101;DHT22;7127;49.372;8.166;2022-07-29T15:54:11;34.30;26.40
14101;DHT22;7127;49.372;8.166;2022-07-29T15:56:38;34.30;26.40
14101;DHT22;7127;49.372;8.166;2022-07-29T15:59:05;34.30;26.30
14101;DHT22;7127;49.372;8.166;2022-07-29T16:01:32;34.30;26.20
14101;DHT22;7127;49.372;8.166;2022-07-29T16:03:59;34.20;26.20
14101;DHT22;7127;49.372;8.166;2022-07-29T16:06:27;34.20;26.10
14101;DHT22;7127;49.372;8.166;2022-07-29T16:08:55;34.20;25.80